createdAt,value
2022-11-20T00:03:09.658Z,16.3
2022-11-20T00:08:15.804Z,16.3
2022-11-20T00:13:21.962Z,16.3
2022-11-20T00:18:28.108Z,16.3
2022-11-20T00:23:34.264Z,16.3
2022-11-20T00:28:40.415Z,16.2
2022-11-20T00:33:46.568Z,16.2
2022-11-20T00:38:52.862Z,16.2
2022-11-20T00:43:58.223Z,16.2
2022-11-20T00:49:04.503Z,16.2
2022-11-20T00:54:10.773Z,16.2
2022-11-20T00:59:17.013Z,16.2
2022-11-20T01:04:23.296Z,16.2
2022-11-20T01:09:29.549Z,16.2
2022-11-20T01:14:35.813Z,16.2
2022-11-20T01:19:42.084Z,16.2
2022-11-20T01:24:48.348Z,16.2
2022-11-20T01:29:54.624Z,16.2
2022-11-20T01:35:00.881Z,16.2
2022-11-20T01:40:07.160Z,16.2
2022-11-20T01:45:13.419Z,16.2
2022-11-20T01:50:18.654Z,16.2
2022-11-20T01:55:24.775Z,16.2
2022-11-20T02:00:30.827Z,16.2
2022-11-20T02:05:36.924Z,16.2
2022-11-20T02:10:43.023Z,16.2
2022-11-20T02:15:49.116Z,16.1
2022-11-20T02:20:55.189Z,16.1
2022-11-20T02:26:01.284Z,16.1
2022-11-20T02:31:07.371Z,16.1
2022-11-20T02:41:19.556Z,16.1
2022-11-20T02:46:25.643Z,16.1
2022-11-20T02:51:31.747Z,16.1
2022-11-20T02:56:37.826Z,16.1
2022-11-20T03:01:43.920Z,16.1
2022-11-20T03:06:50.019Z,16.1
2022-11-20T03:11:56.099Z,16.1
2022-11-20T03:17:02.195Z,16.1
2022-11-20T03:22:08.288Z,16.1
2022-11-20T03:27:14.367Z,16.1
2022-11-20T03:32:20.470Z,16.1
2022-11-20T03:37:26.569Z,16.1
2022-11-20T03:42:32.645Z,16.1
2022-11-20T03:47:38.745Z,16.1
2022-11-20T03:52:44.843Z,16.1
2022-11-20T03:57:50.976Z,16.1
2022-11-20T04:02:57.143Z,16.1
2022-11-20T04:08:03.288Z,16.1
2022-11-20T04:13:09.452Z,16.1
2022-11-20T04:18:15.589Z,16.1
2022-11-20T04:23:21.743Z,16.1
2022-11-20T04:28:27.904Z,16.1
2022-11-20T04:33:34.048Z,16
2022-11-20T04:38:40.201Z,16
2022-11-20T04:43:46.397Z,16
2022-11-20T04:48:52.503Z,16
2022-11-20T04:53:58.655Z,16
2022-11-20T04:59:04.808Z,16
2022-11-20T05:04:09.977Z,16
2022-11-20T05:09:16.076Z,16
2022-11-20T05:14:22.156Z,16
2022-11-20T05:19:28.244Z,16
2022-11-20T05:24:34.343Z,16
2022-11-20T05:29:40.440Z,16
2022-11-20T05:34:45.533Z,16
2022-11-20T05:39:51.614Z,16
2022-11-20T05:44:57.714Z,16
2022-11-20T05:50:03.807Z,16
2022-11-20T05:55:09.894Z,16
2022-11-20T06:00:15.985Z,16
2022-11-20T06:05:22.079Z,16
2022-11-20T06:10:28.166Z,16
2022-11-20T06:15:34.273Z,16
2022-11-20T06:20:40.368Z,16
2022-11-20T06:25:46.435Z,16
2022-11-20T06:30:52.559Z,16
2022-11-20T06:35:58.619Z,15.9
2022-11-20T06:41:04.706Z,16
2022-11-20T06:46:10.802Z,16
2022-11-20T06:51:16.897Z,16
2022-11-20T06:56:22.992Z,16
2022-11-20T07:01:29.077Z,15.9
2022-11-20T07:06:35.166Z,15.9
2022-11-20T07:11:41.260Z,15.9
2022-11-20T07:16:47.349Z,15.9
2022-11-20T07:21:53.465Z,15.9
2022-11-20T07:26:59.529Z,15.9
2022-11-20T07:37:11.707Z,15.9
2022-11-20T07:42:17.823Z,15.9
2022-11-20T07:47:23.897Z,15.9
2022-11-20T07:52:29.989Z,15.9
2022-11-20T07:57:36.073Z,15.9
2022-11-20T08:02:42.160Z,15.9
2022-11-20T08:07:48.256Z,15.9
2022-11-20T08:12:54.458Z,15.9
2022-11-20T08:18:00.435Z,15.9
2022-11-20T08:23:06.578Z,15.9
2022-11-20T08:28:12.611Z,15.9
2022-11-20T08:33:18.743Z,15.9
2022-11-20T08:38:24.810Z,15.9
2022-11-20T08:43:30.954Z,15.9
2022-11-20T08:48:37.103Z,15.9
2022-11-20T08:53:43.266Z,15.9
2022-11-20T08:58:49.413Z,15.9
2022-11-20T09:03:55.637Z,15.9
2022-11-20T09:09:01.879Z,15.9
2022-11-20T09:14:07.995Z,15.9
2022-11-20T09:19:14.150Z,15.9
2022-11-20T09:24:20.305Z,15.9
2022-11-20T09:29:26.420Z,15.9
2022-11-20T09:34:32.661Z,15.9
2022-11-20T09:39:38.811Z,15.9
2022-11-20T09:44:44.979Z,15.9
2022-11-20T09:49:51.066Z,15.9
2022-11-20T09:54:57.518Z,15.9
2022-11-20T10:00:03.737Z,15.9
2022-11-20T10:05:10.022Z,15.9
2022-11-20T10:10:16.228Z,15.9
2022-11-20T10:15:22.560Z,15.9
2022-11-20T10:20:27.703Z,15.9
2022-11-20T10:25:33.864Z,15.9
2022-11-20T10:30:39.790Z,15.9
2022-11-20T10:35:46.029Z,15.9
2022-11-20T10:40:52.148Z,15.9
2022-11-20T10:45:58.231Z,15.9
2022-11-20T10:51:03.320Z,15.9
2022-11-20T10:56:09.254Z,15.9
2022-11-20T11:01:15.429Z,15.9
2022-11-20T11:06:21.621Z,15.9
2022-11-20T11:11:27.705Z,15.9
2022-11-20T11:16:33.802Z,16
2022-11-20T11:21:39.868Z,16
2022-11-20T11:26:45.909Z,16
2022-11-20T11:31:52.127Z,16
2022-11-20T11:36:58.154Z,16
2022-11-20T11:42:04.257Z,16
2022-11-20T11:47:10.333Z,16
2022-11-20T11:52:16.425Z,16
2022-11-20T11:57:22.522Z,16
2022-11-20T12:02:28.606Z,16
2022-11-20T12:07:34.667Z,16
2022-11-20T12:12:40.771Z,15.9
2022-11-20T12:17:46.778Z,16
2022-11-20T12:22:52.983Z,16
2022-11-20T12:27:59.027Z,16
2022-11-20T12:33:05.134Z,15.9
2022-11-20T12:38:11.279Z,15.9
2022-11-20T12:43:17.329Z,15.9
2022-11-20T12:48:23.367Z,15.9
2022-11-20T12:53:29.341Z,15.9
2022-11-20T12:58:35.531Z,15.9
2022-11-20T13:03:41.695Z,15.9
2022-11-20T13:08:47.671Z,15.9
2022-11-20T13:13:53.706Z,15.9
2022-11-20T13:18:59.809Z,15.9
2022-11-20T13:24:04.931Z,15.9
2022-11-20T13:34:17.238Z,15.9
2022-11-20T13:39:23.364Z,15.9
2022-11-20T13:44:29.436Z,15.9
2022-11-20T13:49:35.418Z,15.9
2022-11-20T13:54:41.475Z,15.9
2022-11-20T13:59:47.688Z,15.9
2022-11-20T14:04:53.783Z,15.9
2022-11-20T14:09:59.759Z,15.9
2022-11-20T14:15:05.824Z,15.9
2022-11-20T14:20:11.924Z,15.9
2022-11-20T14:25:17.119Z,15.9
2022-11-20T14:30:23.154Z,15.9
2022-11-20T14:35:29.230Z,15.8
2022-11-20T14:40:35.386Z,15.9
2022-11-20T14:45:41.480Z,15.8
2022-11-20T14:50:47.532Z,15.8
2022-11-20T14:55:53.676Z,15.8
2022-11-20T15:00:59.688Z,15.8
2022-11-20T15:06:05.773Z,15.8
2022-11-20T15:11:11.843Z,15.8
2022-11-20T15:16:17.965Z,15.8
2022-11-20T15:21:24.022Z,15.8
2022-11-20T15:26:30.155Z,15.8
2022-11-20T15:31:36.379Z,15.8
2022-11-20T15:36:42.363Z,15.8
2022-11-20T15:41:48.420Z,15.8
2022-11-20T15:46:54.481Z,15.8
2022-11-20T15:52:00.731Z,15.8
2022-11-20T15:57:06.710Z,15.8
2022-11-20T16:02:12.847Z,15.8
2022-11-20T16:07:18.854Z,15.8
2022-11-20T16:12:24.935Z,15.8
2022-11-20T16:17:31.024Z,15.8
2022-11-20T16:22:37.103Z,15.8
2022-11-20T16:27:43.265Z,15.8
2022-11-20T16:32:49.421Z,15.8
2022-11-20T16:37:55.515Z,15.7
2022-11-20T16:43:01.663Z,15.8
2022-11-20T16:48:07.811Z,15.7
2022-11-20T16:53:14.033Z,15.7
2022-11-20T16:58:19.124Z,15.7
2022-11-20T17:03:25.221Z,15.7
2022-11-20T17:08:31.325Z,15.7
2022-11-20T17:13:37.406Z,15.7
2022-11-20T17:18:42.515Z,15.7
2022-11-20T17:23:48.602Z,15.7
2022-11-20T17:28:54.704Z,15.7
2022-11-20T17:34:00.814Z,15.7
2022-11-20T17:39:06.876Z,15.7
2022-11-20T17:44:12.966Z,15.7
2022-11-20T17:49:19.251Z,15.7
2022-11-20T17:54:25.131Z,15.7
2022-11-20T17:59:31.226Z,15.7
2022-11-20T18:04:37.508Z,15.7
2022-11-20T18:09:43.528Z,15.7
2022-11-20T18:14:49.688Z,15.7
2022-11-20T18:19:55.670Z,15.7
2022-11-20T18:25:01.847Z,15.7
2022-11-20T18:30:08.023Z,15.7
2022-11-20T18:35:13.987Z,15.7
2022-11-20T18:40:20.141Z,15.7
2022-11-20T18:45:26.144Z,15.7
2022-11-20T18:50:32.132Z,15.6
2022-11-20T18:55:38.344Z,15.6
2022-11-20T19:00:44.421Z,15.6
2022-11-20T19:05:50.476Z,15.6
2022-11-20T19:10:56.624Z,15.6
2022-11-20T19:16:02.591Z,15.6
2022-11-20T19:21:08.676Z,15.6
2022-11-20T19:26:14.771Z,15.6
2022-11-20T19:31:19.892Z,15.6
2022-11-20T19:36:26.189Z,15.6
2022-11-20T19:41:32.209Z,15.6
2022-11-20T19:46:38.187Z,15.6
2022-11-20T19:51:44.249Z,15.6
2022-11-20T19:56:50.369Z,15.6
2022-11-20T20:01:56.628Z,15.6
2022-11-20T20:07:02.543Z,15.6
2022-11-20T20:12:08.781Z,15.6
2022-11-20T20:17:14.805Z,15.6
2022-11-20T20:22:20.849Z,15.6
2022-11-20T20:27:26.873Z,15.6
2022-11-20T20:32:33.048Z,15.5
2022-11-20T20:37:39.114Z,15.5
2022-11-20T20:42:45.235Z,15.5
2022-11-20T20:47:51.384Z,15.6
2022-11-20T20:52:57.367Z,15.5
2022-11-20T20:58:03.422Z,15.5
2022-11-20T21:03:09.506Z,15.5
2022-11-20T21:08:15.596Z,15.5
2022-11-20T21:13:21.688Z,15.5
2022-11-20T21:18:27.778Z,15.5
2022-11-20T21:23:33.871Z,15.5
2022-11-20T21:28:39.963Z,15.5
2022-11-20T21:33:45.074Z,15.5
2022-11-20T21:38:51.183Z,15.5
2022-11-20T21:43:57.267Z,15.5
2022-11-20T21:49:03.352Z,15.5
2022-11-20T21:54:09.433Z,15.5
2022-11-20T21:59:15.532Z,15.4
2022-11-20T22:04:21.618Z,15.4
2022-11-20T22:09:27.714Z,15.5
2022-11-20T22:14:33.802Z,15.5
2022-11-20T22:19:39.896Z,15.4
2022-11-20T22:24:45.983Z,15.4
2022-11-20T22:29:52.067Z,15.4
2022-11-20T22:34:58.163Z,15.4
2022-11-20T22:40:04.256Z,15.4
2022-11-20T22:45:10.345Z,15.4
2022-11-20T22:50:16.433Z,15.4
2022-11-20T22:55:22.524Z,15.4
2022-11-20T23:00:28.627Z,15.4
2022-11-20T23:05:33.724Z,15.4
2022-11-20T23:10:39.837Z,15.4
2022-11-20T23:15:45.910Z,15.4
2022-11-20T23:20:51.996Z,15.4
2022-11-20T23:25:58.078Z,15.4
2022-11-20T23:31:04.167Z,15.4
2022-11-20T23:36:10.265Z,15.4
2022-11-20T23:41:16.354Z,15.4
2022-11-20T23:46:22.449Z,15.4
2022-11-20T23:51:28.532Z,15.4
2022-11-20T23:56:34.620Z,15.4
